Wendover, Nevada
Current Conditions -  °F | °C
As of 6:15 PM on Tuesday 21 Oct 2014 (Local Time) from KENV Reporting Station
Clear Clear  
Wind Chill: 61°   Ceiling: Unl
Heat Index: 61°   Visibility: 10mi
Dew Point: 18°   Wind: 17mph
Humidity: 19%   Direction: 350°N
Pressure: 30.01"   Gusts: 23mph
Location:  40.7438°N, 114.134°W
Report Text: KENV 220015Z AUTO 35015G20KT 10SM CLR 16/M08 A3001 RMK AO1
Loading
Personal Weather Stations






























Interactive Weather Map
Tropical Storm Tracking
New forecast layout! Learn more

10-Day Weather Forecast

Advertisements
Track Severe Weather on mobile